Time;durP1;ratioP1;P1;durP2;ratioP2;P2;SDS_P1;SDS_P2;PMS_P1;PMS_P2;Temp;Humidity;BMP_temperature;BMP_pressure;BME280_temperature;BME280_humidity;BME280_pressure;Samples;Min_cycle;Max_cycle;Signal;HPM_P1;HPM_P2
2021/04/29 00:00:11;;;;;;;3.53;1.60;;;;;;;;;;5029624;28;20084;-49
2021/04/29 00:02:38;;;;;;;2.33;1.80;;;;;;;;;;5023455;28;20054;-46
2021/04/29 00:05:06;;;;;;;7.45;1.88;;;;;;;;;;5028480;28;20068;-46
2021/04/29 00:07:33;;;;;;;6.38;1.55;;;;;;;;;;5022730;28;20352;-45
2021/04/29 00:10:01;;;;;;;2.45;1.65;;;;;;;;;;5021324;28;20042;-49
2021/04/29 00:12:27;;;;;;;1.98;1.80;;;;;;;;;;5021360;28;20033;-45
2021/04/29 00:14:53;;;;;;;2.45;2.33;;;;;;;;;;5022833;28;20038;-46
2021/04/29 00:17:19;;;;;;;16.63;2.95;;;;;;;;;;5025695;28;20547;-47
2021/04/29 00:19:46;;;;;;;3.03;2.17;;;;;;;;;;5028842;28;20377;-47
2021/04/29 00:22:12;;;;;;;2.67;2.00;;;;;;;;;;5019592;28;20041;-48
2021/04/29 00:24:39;;;;;;;2.70;2.15;;;;;;;;;;5024302;28;20045;-46
2021/04/29 00:27:05;;;;;;;3.72;2.63;;;;;;;;;;5014403;28;20050;-45
2021/04/29 00:29:32;;;;;;;7.43;2.47;;;;;;;;;;5028017;28;20064;-47
2021/04/29 00:31:58;;;;;;;3.67;1.92;;;;;;;;;;5028622;28;20121;-46
2021/04/29 00:34:25;;;;;;;2.00;1.90;;;;;;;;;;5029807;28;20040;-46
2021/04/29 00:36:52;;;;;;;3.97;2.38;;;;;;;;;;5027610;28;20037;-49
2021/04/29 00:39:18;;;;;;;5.22;1.77;;;;;;;;;;5012620;28;20120;-47
2021/04/29 00:41:45;;;;;;;2.38;2.03;;;;;;;;;;5023696;28;20143;-49
2021/04/29 00:44:11;;;;;;;4.82;1.42;;;;;;;;;;5021119;28;20056;-48
2021/04/29 00:46:38;;;;;;;4.30;1.38;;;;;;;;;;5029227;28;20041;-47
2021/04/29 00:49:04;;;;;;;1.92;1.83;;;;;;;;;;5028842;28;20061;-49
2021/04/29 00:51:31;;;;;;;2.17;1.75;;;;;;;;;;5012513;28;20339;-47
2021/04/29 00:53:57;;;;;;;1.92;1.42;;;;;;;;;;5022862;28;20041;-49
2021/04/29 00:56:25;;;;;;;3.08;1.65;;;;;;;;;;5016370;28;20048;-45
2021/04/29 00:58:52;;;;;;;4.43;1.30;;;;;;;;;;5029365;28;20052;-46
2021/04/29 01:01:20;;;;;;;2.45;1.75;;;;;;;;;;5027598;28;20045;-48
2021/04/29 01:03:46;;;;;;;3.22;1.48;;;;;;;;;;5028958;28;20041;-49
2021/04/29 01:06:21;;;;;;;2.67;1.88;;;;;;;;;;5028725;28;20065;-46
2021/04/29 01:08:47;;;;;;;2.58;1.52;;;;;;;;;;5022163;28;20034;-49
2021/04/29 01:11:15;;;;;;;4.70;1.55;;;;;;;;;;5013784;28;20045;-46
2021/04/29 01:13:44;;;;;;;5.55;2.22;;;;;;;;;;5024005;28;20045;-46
2021/04/29 01:16:11;;;;;;;1.60;1.40;;;;;;;;;;5024997;28;20052;-47
2021/04/29 01:18:37;;;;;;;6.40;2.65;;;;;;;;;;5027239;28;20478;-45
2021/04/29 01:21:12;;;;;;;3.20;1.77;;;;;;;;;;5024845;28;20049;-46
2021/04/29 01:23:48;;;;;;;4.65;2.30;;;;;;;;;;5028405;28;20438;-47
2021/04/29 01:26:25;;;;;;;8.20;2.00;;;;;;;;;;5028465;28;20048;-46
2021/04/29 01:28:52;;;;;;;3.22;1.80;;;;;;;;;;5027457;28;20061;-47
2021/04/29 01:31:20;;;;;;;3.83;1.98;;;;;;;;;;5026582;28;20466;-47
2021/04/29 01:33:46;;;;;;;2.63;1.77;;;;;;;;;;5026230;28;20045;-45
2021/04/29 01:36:13;;;;;;;4.40;1.60;;;;;;;;;;5020262;28;20088;-49
2021/04/29 01:38:39;;;;;;;2.97;1.88;;;;;;;;;;5020301;28;20041;-48
2021/04/29 01:41:06;;;;;;;3.10;2.50;;;;;;;;;;5021539;28;20119;-47
2021/04/29 01:43:32;;;;;;;1.52;1.48;;;;;;;;;;5029790;28;20033;-47
2021/04/29 01:46:03;;;;;;;2.08;1.98;;;;;;;;;;5028616;28;20739;-45
2021/04/29 01:48:30;;;;;;;3.97;1.80;;;;;;;;;;5022701;28;20052;-46
2021/04/29 01:50:57;;;;;;;1.60;1.50;;;;;;;;;;5029165;28;20040;-45
2021/04/29 01:53:26;;;;;;;3.30;1.83;;;;;;;;;;5027926;28;20478;-46
2021/04/29 01:55:53;;;;;;;3.75;1.75;;;;;;;;;;5028197;28;20046;-47
2021/04/29 01:58:20;;;;;;;1.60;1.50;;;;;;;;;;5027461;28;20029;-45
2021/04/29 02:00:47;;;;;;;3.72;1.95;;;;;;;;;;5027083;28;20128;-46
2021/04/29 02:03:13;;;;;;;1.88;1.73;;;;;;;;;;5028845;28;20041;-45
2021/04/29 02:05:39;;;;;;;2.45;1.75;;;;;;;;;;5027265;28;20042;-49
2021/04/29 02:08:06;;;;;;;3.50;2.22;;;;;;;;;;5028280;28;20601;-45
2021/04/29 02:10:32;;;;;;;2.78;1.70;;;;;;;;;;5025504;28;20057;-45
2021/04/29 02:13:00;;;;;;;3.17;1.77;;;;;;;;;;5027725;28;20132;-45
2021/04/29 02:15:31;;;;;;;9.25;1.98;;;;;;;;;;5016832;28;20449;-46
2021/04/29 02:18:01;;;;;;;3.80;1.88;;;;;;;;;;5026246;28;20389;-46
2021/04/29 02:20:29;;;;;;;2.72;1.55;;;;;;;;;;5031246;28;20467;-46
2021/04/29 02:22:56;;;;;;;3.28;2.72;;;;;;;;;;5027686;28;20045;-45
2021/04/29 02:25:27;;;;;;;4.97;1.65;;;;;;;;;;5031907;28;20049;-46
2021/04/29 02:27:54;;;;;;;3.55;2.25;;;;;;;;;;5018938;28;20490;-47
2021/04/29 02:30:20;;;;;;;4.15;1.45;;;;;;;;;;5030749;28;20543;-48
2021/04/29 02:32:46;;;;;;;1.60;1.50;;;;;;;;;;5031338;28;20038;-46
2021/04/29 02:35:14;;;;;;;3.63;1.88;;;;;;;;;;5032179;28;20044;-49
2021/04/29 02:37:42;;;;;;;2.20;1.70;;;;;;;;;;5030769;28;20049;-47
2021/04/29 02:40:10;;;;;;;2.17;1.85;;;;;;;;;;5031689;28;20059;-45
2021/04/29 02:42:37;;;;;;;2.00;1.90;;;;;;;;;;5025931;28;20050;-46
2021/04/29 02:45:05;;;;;;;2.38;1.95;;;;;;;;;;5029980;28;20045;-45
2021/04/29 02:47:32;;;;;;;3.03;1.50;;;;;;;;;;5031695;28;20103;-46
2021/04/29 02:49:58;;;;;;;6.28;1.95;;;;;;;;;;5030038;28;20099;-47
2021/04/29 02:52:25;;;;;;;4.10;1.50;;;;;;;;;;5014615;28;20509;-46
2021/04/29 02:54:51;;;;;;;5.22;1.85;;;;;;;;;;5030584;28;20056;-47
2021/04/29 02:57:21;;;;;;;1.70;1.60;;;;;;;;;;5032152;28;20041;-49
2021/04/29 02:59:48;;;;;;;2.42;1.40;;;;;;;;;;5029662;28;20371;-45
2021/04/29 03:02:15;;;;;;;2.33;1.63;;;;;;;;;;5031667;28;20033;-45
2021/04/29 03:04:42;;;;;;;2.70;1.42;;;;;;;;;;5028071;28;20041;-45
2021/04/29 03:07:08;;;;;;;1.92;1.65;;;;;;;;;;5027701;28;20042;-48
2021/04/29 03:09:35;;;;;;;3.35;1.40;;;;;;;;;;5029788;28;20048;-45
2021/04/29 03:12:02;;;;;;;1.58;1.40;;;;;;;;;;5031165;28;20052;-46
2021/04/29 03:14:29;;;;;;;3.28;1.88;;;;;;;;;;5029047;28;20040;-46
2021/04/29 03:16:57;;;;;;;2.35;1.48;;;;;;;;;;5029647;28;20041;-47
2021/04/29 03:19:23;;;;;;;2.80;1.83;;;;;;;;;;5025692;28;20049;-46
2021/04/29 03:21:50;;;;;;;1.83;1.50;;;;;;;;;;5028826;28;20508;-49
2021/04/29 03:24:16;;;;;;;3.97;1.83;;;;;;;;;;5019787;28;20574;-48
2021/04/29 03:26:42;;;;;;;2.85;2.28;;;;;;;;;;5025499;28;20051;-47
2021/04/29 03:29:09;;;;;;;4.68;1.77;;;;;;;;;;5016524;28;20046;-45
2021/04/29 03:31:35;;;;;;;2.30;2.10;;;;;;;;;;5029858;28;20045;-46
2021/04/29 03:34:02;;;;;;;3.10;1.90;;;;;;;;;;5027648;28;20518;-50
2021/04/29 03:36:28;;;;;;;2.28;2.17;;;;;;;;;;5025041;28;20096;-46
2021/04/29 03:38:55;;;;;;;7.78;2.10;;;;;;;;;;5027916;28;20041;-49
2021/04/29 03:41:21;;;;;;;2.97;2.03;;;;;;;;;;5030196;28;20125;-46
2021/04/29 03:43:47;;;;;;;1.83;1.73;;;;;;;;;;5030619;28;20068;-49
2021/04/29 03:46:14;;;;;;;2.00;1.88;;;;;;;;;;5028705;28;20523;-47
2021/04/29 03:48:40;;;;;;;2.78;2.20;;;;;;;;;;5015627;28;20936;-45
2021/04/29 03:51:06;;;;;;;2.53;2.35;;;;;;;;;;5029136;28;20494;-45
2021/04/29 03:53:33;;;;;;;10.23;3.65;;;;;;;;;;5030084;28;20419;-46
2021/04/29 03:55:59;;;;;;;3.90;1.92;;;;;;;;;;5030985;28;20072;-46
2021/04/29 03:58:26;;;;;;;3.67;2.03;;;;;;;;;;5028562;28;20072;-48
2021/04/29 04:00:52;;;;;;;2.55;1.55;;;;;;;;;;5014345;28;20136;-45
2021/04/29 04:03:18;;;;;;;2.35;2.20;;;;;;;;;;5028053;28;20071;-47
2021/04/29 04:05:44;;;;;;;3.03;2.83;;;;;;;;;;5030103;28;20132;-48
2021/04/29 04:08:10;;;;;;;5.20;2.25;;;;;;;;;;5023123;28;20099;-46
2021/04/29 04:10:36;;;;;;;5.47;2.85;;;;;;;;;;5029320;28;20111;-47
2021/04/29 04:13:03;;;;;;;7.80;3.50;;;;;;;;;;5012527;28;20554;-46
2021/04/29 04:15:29;;;;;;;5.80;2.58;;;;;;;;;;5025275;28;20068;-45
2021/04/29 04:17:55;;;;;;;5.45;3.70;;;;;;;;;;5015756;28;20041;-46
2021/04/29 04:20:22;;;;;;;3.20;3.00;;;;;;;;;;5029282;28;20096;-46
2021/04/29 04:22:49;;;;;;;5.13;2.55;;;;;;;;;;5027449;28;20038;-47
2021/04/29 04:25:15;;;;;;;3.88;2.88;;;;;;;;;;5030021;28;20061;-45
2021/04/29 04:27:42;;;;;;;2.35;1.88;;;;;;;;;;5023027;28;20441;-46
2021/04/29 04:30:08;;;;;;;2.92;2.80;;;;;;;;;;5028334;28;20057;-47
2021/04/29 04:32:35;;;;;;;3.90;2.70;;;;;;;;;;5030319;28;20079;-46
2021/04/29 04:35:01;;;;;;;8.80;2.22;;;;;;;;;;5026815;28;20550;-47
2021/04/29 04:37:28;;;;;;;6.32;2.72;;;;;;;;;;5022704;28;20045;-49
2021/04/29 04:39:54;;;;;;;2.72;2.10;;;;;;;;;;5025979;28;20588;-46
2021/04/29 04:42:20;;;;;;;2.80;2.65;;;;;;;;;;5027439;28;20045;-48
2021/04/29 04:44:46;;;;;;;2.75;2.17;;;;;;;;;;5030360;28;20070;-50
2021/04/29 04:47:12;;;;;;;3.83;2.40;;;;;;;;;;5027626;28;20049;-47
2021/04/29 04:49:39;;;;;;;1.95;1.85;;;;;;;;;;5013343;28;20434;-48
2021/04/29 04:52:06;;;;;;;7.18;2.13;;;;;;;;;;5022127;28;20042;-46
2021/04/29 04:54:33;;;;;;;3.80;2.42;;;;;;;;;;5017478;28;20037;-47
2021/04/29 04:57:00;;;;;;;3.05;2.30;;;;;;;;;;5032053;28;20040;-45
2021/04/29 04:59:27;;;;;;;2.63;2.42;;;;;;;;;;5028002;28;20037;-46
2021/04/29 05:01:54;;;;;;;5.45;1.98;;;;;;;;;;5028228;28;20375;-46
2021/04/29 05:04:24;;;;;;;5.18;2.03;;;;;;;;;;5021156;28;20034;-46
2021/04/29 05:06:50;;;;;;;2.50;1.88;;;;;;;;;;5022533;28;20049;-45
2021/04/29 05:09:18;;;;;;;2.72;2.40;;;;;;;;;;5029975;28;20069;-48
2021/04/29 05:11:44;;;;;;;3.25;2.42;;;;;;;;;;5026253;28;20432;-48
2021/04/29 05:14:11;;;;;;;2.85;1.95;;;;;;;;;;5029576;28;20045;-45
2021/04/29 05:16:38;;;;;;;3.60;2.13;;;;;;;;;;5018413;28;20037;-46
2021/04/29 05:19:05;;;;;;;2.63;2.25;;;;;;;;;;5024441;28;20034;-45
2021/04/29 05:21:31;;;;;;;2.20;2.05;;;;;;;;;;5023378;28;20041;-46
2021/04/29 05:23:57;;;;;;;5.45;2.25;;;;;;;;;;5024394;28;20117;-55
2021/04/29 05:26:23;;;;;;;2.20;2.10;;;;;;;;;;5025546;28;20044;-53
2021/04/29 05:28:50;;;;;;;3.20;1.95;;;;;;;;;;5029834;28;20042;-55
2021/04/29 05:31:16;;;;;;;7.35;2.13;;;;;;;;;;5027985;28;20038;-54
2021/04/29 05:33:42;;;;;;;2.85;2.35;;;;;;;;;;5012063;28;20093;-53
2021/04/29 05:36:08;;;;;;;5.10;2.03;;;;;;;;;;5031310;28;20036;-54
2021/04/29 05:38:35;;;;;;;3.90;2.10;;;;;;;;;;5038912;28;20141;-54
2021/04/29 05:41:01;;;;;;;4.30;3.33;;;;;;;;;;5032237;28;20036;-54
2021/04/29 05:43:31;;;;;;;4.50;1.92;;;;;;;;;;5030855;28;20398;-54
2021/04/29 05:45:57;;;;;;;2.50;2.33;;;;;;;;;;5011785;28;20088;-52
2021/04/29 05:48:24;;;;;;;2.35;2.10;;;;;;;;;;5022274;28;20057;-55
2021/04/29 05:50:50;;;;;;;2.70;2.08;;;;;;;;;;5016516;28;20055;-53
2021/04/29 05:53:16;;;;;;;2.03;1.92;;;;;;;;;;5033232;28;20041;-54
2021/04/29 05:55:42;;;;;;;4.75;2.65;;;;;;;;;;5031754;28;20084;-54
2021/04/29 05:58:09;;;;;;;5.88;2.20;;;;;;;;;;5013717;28;20042;-53
2021/04/29 06:00:36;;;;;;;2.03;1.92;;;;;;;;;;5025127;28;20030;-54
2021/04/29 06:03:02;;;;;;;2.20;2.08;;;;;;;;;;5021730;28;20363;-55
2021/04/29 06:05:29;;;;;;;7.55;2.10;;;;;;;;;;5031790;28;20065;-55
2021/04/29 06:07:56;;;;;;;2.97;1.50;;;;;;;;;;5031660;28;20041;-54
2021/04/29 06:10:22;;;;;;;6.45;1.40;;;;;;;;;;5033172;28;20466;-54
2021/04/29 06:12:49;;;;;;;2.60;1.98;;;;;;;;;;5024094;28;20092;-55
2021/04/29 06:15:15;;;;;;;1.60;1.48;;;;;;;;;;5022145;28;20041;-54
2021/04/29 06:17:42;;;;;;;2.85;1.50;;;;;;;;;;5018817;28;20046;-53
2021/04/29 06:20:09;;;;;;;5.50;1.90;;;;;;;;;;5027544;28;20026;-54
2021/04/29 06:22:35;;;;;;;3.65;1.65;;;;;;;;;;5031633;28;20048;-54
2021/04/29 06:25:01;;;;;;;3.53;1.48;;;;;;;;;;5025688;28;20050;-51
2021/04/29 06:27:27;;;;;;;2.63;1.52;;;;;;;;;;5030172;28;20083;-53
2021/04/29 06:29:54;;;;;;;2.08;1.48;;;;;;;;;;5032033;28;20169;-53
2021/04/29 06:32:20;;;;;;;4.22;1.65;;;;;;;;;;5030461;28;20411;-54
2021/04/29 06:34:47;;;;;;;4.63;1.67;;;;;;;;;;5030497;28;20148;-54
2021/04/29 06:37:13;;;;;;;4.63;1.50;;;;;;;;;;5032880;28;20041;-54
2021/04/29 06:39:39;;;;;;;2.00;1.60;;;;;;;;;;5025960;28;20064;-54
2021/04/29 06:42:06;;;;;;;4.28;1.98;;;;;;;;;;5021940;28;20092;-54
2021/04/29 06:44:32;;;;;;;4.78;1.80;;;;;;;;;;5026553;28;20790;-54
2021/04/29 06:46:58;;;;;;;9.15;1.55;;;;;;;;;;5015961;28;20409;-53
2021/04/29 06:49:26;;;;;;;5.47;1.52;;;;;;;;;;5030839;28;20104;-54
2021/04/29 06:51:53;;;;;;;2.08;1.50;;;;;;;;;;5029709;28;20041;-54
2021/04/29 06:54:19;;;;;;;3.22;1.40;;;;;;;;;;5020476;28;20049;-54
2021/04/29 06:56:46;;;;;;;2.90;1.50;;;;;;;;;;5027321;28;20061;-54
2021/04/29 06:59:12;;;;;;;2.25;1.55;;;;;;;;;;5028839;28;20581;-53
2021/04/29 07:01:38;;;;;;;2.00;1.33;;;;;;;;;;5027875;28;20042;-54
2021/04/29 07:04:05;;;;;;;2.58;1.33;;;;;;;;;;5029034;28;20041;-53
2021/04/29 07:06:31;;;;;;;1.50;1.40;;;;;;;;;;5013530;28;20069;-52
2021/04/29 07:08:58;;;;;;;1.35;1.20;;;;;;;;;;5024653;28;20401;-54
2021/04/29 07:11:25;;;;;;;1.98;1.88;;;;;;;;;;5024080;28;20496;-53
2021/04/29 07:13:52;;;;;;;2.58;1.33;;;;;;;;;;5020468;28;20045;-53
2021/04/29 07:16:18;;;;;;;6.65;1.60;;;;;;;;;;5024185;28;20440;-54
2021/04/29 07:18:44;;;;;;;7.72;1.90;;;;;;;;;;5011841;28;20044;-53
2021/04/29 07:21:11;;;;;;;3.00;1.95;;;;;;;;;;5028740;28;20369;-54
2021/04/29 07:23:37;;;;;;;6.10;1.67;;;;;;;;;;5029492;28;20073;-54
2021/04/29 07:26:03;;;;;;;3.92;1.58;;;;;;;;;;5022411;28;20564;-53
2021/04/29 07:28:29;;;;;;;3.95;1.90;;;;;;;;;;5028171;28;20080;-54
2021/04/29 07:30:55;;;;;;;2.10;1.50;;;;;;;;;;5028509;28;20099;-53
2021/04/29 07:33:22;;;;;;;2.47;2.25;;;;;;;;;;5023602;28;20483;-53
2021/04/29 07:35:49;;;;;;;2.30;2.10;;;;;;;;;;5017428;28;20057;-53
2021/04/29 07:38:15;;;;;;;3.17;2.10;;;;;;;;;;5030764;28;20047;-53
2021/04/29 07:40:41;;;;;;;4.18;2.30;;;;;;;;;;5024373;28;20481;-53
2021/04/29 07:43:08;;;;;;;6.65;2.15;;;;;;;;;;5029469;28;20042;-54
2021/04/29 07:45:35;;;;;;;4.95;1.90;;;;;;;;;;5028704;28;20092;-54
2021/04/29 07:48:01;;;;;;;5.30;2.58;;;;;;;;;;5006223;28;657554;-54
2021/04/29 07:50:31;;;;;;;2.45;2.30;;;;;;;;;;5015748;28;20865;-54
2021/04/29 07:52:57;;;;;;;5.32;2.53;;;;;;;;;;5024432;28;20040;-54
2021/04/29 07:55:24;;;;;;;3.25;1.90;;;;;;;;;;5020216;28;20056;-52
2021/04/29 07:57:50;;;;;;;5.43;2.78;;;;;;;;;;5027351;28;20037;-54
2021/04/29 08:00:17;;;;;;;2.90;2.40;;;;;;;;;;5020149;28;20026;-54
2021/04/29 08:02:43;;;;;;;3.30;1.90;;;;;;;;;;5013124;28;20049;-54
2021/04/29 08:05:10;;;;;;;2.85;2.17;;;;;;;;;;5025344;28;20521;-54
2021/04/29 08:07:37;;;;;;;8.82;2.70;;;;;;;;;;5014427;28;20088;-54
2021/04/29 08:10:04;;;;;;;4.43;1.95;;;;;;;;;;5030002;28;20509;-54
2021/04/29 08:12:31;;;;;;;4.60;2.15;;;;;;;;;;5026493;28;20038;-53
2021/04/29 08:14:59;;;;;;;2.00;1.90;;;;;;;;;;5030592;28;20045;-54
2021/04/29 08:17:29;;;;;;;3.92;2.58;;;;;;;;;;5023583;28;20603;-54
2021/04/29 08:19:56;;;;;;;4.28;1.95;;;;;;;;;;5016391;28;20051;-54
2021/04/29 08:22:23;;;;;;;3.03;2.10;;;;;;;;;;5030910;28;20129;-52
2021/04/29 08:24:51;;;;;;;7.22;2.35;;;;;;;;;;5028695;28;20049;-53
2021/04/29 08:27:17;;;;;;;3.67;2.63;;;;;;;;;;5021263;28;20447;-54
2021/04/29 08:29:43;;;;;;;3.28;2.70;;;;;;;;;;5023699;28;20048;-52
2021/04/29 08:32:10;;;;;;;5.13;2.15;;;;;;;;;;5017804;28;20115;-54
2021/04/29 08:34:36;;;;;;;2.38;1.85;;;;;;;;;;5029594;28;20041;-52
2021/04/29 08:37:02;;;;;;;2.35;2.20;;;;;;;;;;5029184;28;20037;-54
2021/04/29 08:39:30;;;;;;;4.53;1.75;;;;;;;;;;5016119;28;20049;-54
2021/04/29 08:41:56;;;;;;;8.77;1.95;;;;;;;;;;5030230;28;20320;-54
2021/04/29 08:44:23;;;;;;;5.32;2.42;;;;;;;;;;5029983;28;20064;-54
2021/04/29 08:46:49;;;;;;;3.22;2.13;;;;;;;;;;5017369;28;20081;-54
2021/04/29 08:49:16;;;;;;;8.20;2.83;;;;;;;;;;5024059;28;20052;-54
2021/04/29 08:51:44;;;;;;;3.75;2.35;;;;;;;;;;5028316;28;20045;-54
2021/04/29 08:54:10;;;;;;;3.67;2.47;;;;;;;;;;5021498;28;20169;-54
2021/04/29 08:56:36;;;;;;;2.65;2.20;;;;;;;;;;5024592;28;20037;-54
2021/04/29 08:59:03;;;;;;;5.60;1.75;;;;;;;;;;5015466;28;20129;-52
2021/04/29 09:01:43;;;;;;;3.95;2.00;;;;;;;;;;5023639;28;20037;-54
2021/04/29 09:04:10;;;;;;;8.85;2.47;;;;;;;;;;5028814;28;20363;-54
2021/04/29 09:06:38;;;;;;;2.35;2.10;;;;;;;;;;5028762;28;20056;-55
2021/04/29 09:09:04;;;;;;;3.20;2.38;;;;;;;;;;5027116;28;20053;-54
2021/04/29 09:11:30;;;;;;;3.70;2.85;;;;;;;;;;5024522;28;20040;-54
2021/04/29 09:13:57;;;;;;;5.80;2.20;;;;;;;;;;5028287;28;20413;-52
2021/04/29 09:16:23;;;;;;;4.50;2.58;;;;;;;;;;5014567;28;20037;-55
2021/04/29 09:18:50;;;;;;;5.88;2.40;;;;;;;;;;5030105;28;20132;-54
2021/04/29 09:21:17;;;;;;;7.32;3.08;;;;;;;;;;5027975;28;20444;-54
2021/04/29 09:23:48;;;;;;;6.53;3.35;;;;;;;;;;5027360;28;20045;-54
2021/04/29 09:26:16;;;;;;;5.63;2.42;;;;;;;;;;5022598;28;20042;-53
2021/04/29 09:28:52;;;;;;;9.38;3.05;;;;;;;;;;5016323;28;20091;-54
2021/04/29 09:31:21;;;;;;;4.07;2.25;;;;;;;;;;5028744;28;20056;-54
2021/04/29 09:33:51;;;;;;;3.60;1.65;;;;;;;;;;5023343;28;20117;-54
2021/04/29 09:36:22;;;;;;;7.25;3.17;;;;;;;;;;5013738;28;20050;-53
2021/04/29 09:38:55;;;;;;;4.32;2.08;;;;;;;;;;5028950;28;20116;-54
2021/04/29 09:41:24;;;;;;;4.70;2.67;;;;;;;;;;5025334;28;20042;-52
2021/04/29 09:43:57;;;;;;;5.07;2.53;;;;;;;;;;5020173;28;20072;-52
2021/04/29 09:46:24;;;;;;;13.98;3.03;;;;;;;;;;5023724;28;20374;-54
2021/04/29 09:48:51;;;;;;;10.45;1.95;;;;;;;;;;5017436;28;20403;-54
2021/04/29 09:51:18;;;;;;;6.00;3.70;;;;;;;;;;5027810;28;20096;-54
2021/04/29 09:53:49;;;;;;;5.35;2.60;;;;;;;;;;5027404;28;20038;-53
2021/04/29 09:56:18;;;;;;;4.75;2.20;;;;;;;;;;5011852;28;20059;-52
2021/04/29 09:59:05;;;;;;;6.13;3.15;;;;;;;;;;5027368;28;20042;-54
2021/04/29 10:01:31;;;;;;;2.92;2.10;;;;;;;;;;5019921;28;20095;-52
2021/04/29 10:03:57;;;;;;;4.53;3.03;;;;;;;;;;5025124;28;20587;-53
2021/04/29 10:06:25;;;;;;;6.13;3.40;;;;;;;;;;5022222;28;20141;-53
2021/04/29 10:08:51;;;;;;;3.90;3.55;;;;;;;;;;5014095;28;20037;-55
2021/04/29 10:11:22;;;;;;;8.50;2.78;;;;;;;;;;5029048;28;20048;-55
2021/04/29 10:13:55;;;;;;;6.20;2.60;;;;;;;;;;5022772;28;20087;-55
2021/04/29 10:16:22;;;;;;;5.70;3.25;;;;;;;;;;5028074;28;20425;-53
2021/04/29 10:18:50;;;;;;;4.97;3.30;;;;;;;;;;5029108;28;20069;-53
2021/04/29 10:21:19;;;;;;;6.75;2.58;;;;;;;;;;5026667;28;20076;-54
2021/04/29 10:23:46;;;;;;;8.35;3.50;;;;;;;;;;5014543;28;20037;-54
2021/04/29 10:26:23;;;;;;;4.82;4.00;;;;;;;;;;5022245;28;20494;-53
2021/04/29 10:28:54;;;;;;;7.25;3.13;;;;;;;;;;5012077;28;20034;-54
2021/04/29 10:31:22;;;;;;;3.22;2.95;;;;;;;;;;5022499;28;20038;-53
2021/04/29 10:34:02;;;;;;;5.93;4.55;;;;;;;;;;5021093;28;20025;-54
2021/04/29 10:36:34;;;;;;;6.68;3.58;;;;;;;;;;5012139;28;20137;-52
2021/04/29 10:39:18;;;;;;;5.47;4.03;;;;;;;;;;5030561;28;20034;-54
2021/04/29 10:41:45;;;;;;;6.38;5.10;;;;;;;;;;5030795;28;20037;-52
2021/04/29 10:44:13;;;;;;;9.52;5.43;;;;;;;;;;5032960;28;20038;-54
2021/04/29 10:46:40;;;;;;;5.80;5.40;;;;;;;;;;5025451;28;20449;-54
2021/04/29 10:49:08;;;;;;;7.57;4.45;;;;;;;;;;5031249;28;20042;-53
2021/04/29 10:51:38;;;;;;;6.32;4.90;;;;;;;;;;5036771;28;20044;-53
2021/04/29 10:54:13;;;;;;;12.20;5.53;;;;;;;;;;5033884;28;20087;-53
2021/04/29 10:56:40;;;;;;;8.75;3.83;;;;;;;;;;5032129;28;20041;-54
2021/04/29 10:59:10;;;;;;;4.18;3.70;;;;;;;;;;5025295;28;20541;-54
2021/04/29 11:01:43;;;;;;;5.35;4.50;;;;;;;;;;5020531;28;20073;-54
2021/04/29 11:04:17;;;;;;;4.75;4.28;;;;;;;;;;5030926;28;20045;-53
2021/04/29 11:06:44;;;;;;;5.07;3.97;;;;;;;;;;5028234;28;20041;-54
2021/04/29 11:09:18;;;;;;;6.85;4.25;;;;;;;;;;5030042;28;20053;-54
2021/04/29 11:11:44;;;;;;;9.15;3.88;;;;;;;;;;5019736;28;20507;-54
2021/04/29 11:14:17;;;;;;;4.90;3.67;;;;;;;;;;5031145;28;20116;-54
2021/04/29 11:16:49;;;;;;;7.65;3.80;;;;;;;;;;5017179;28;20037;-54
2021/04/29 11:19:34;;;;;;;8.13;4.60;;;;;;;;;;5026375;28;20033;-53
2021/04/29 11:22:04;;;;;;;12.00;4.53;;;;;;;;;;5030177;28;20672;-54
2021/04/29 11:24:34;;;;;;;5.82;2.70;;;;;;;;;;5014903;28;20490;-52
2021/04/29 11:27:00;;;;;;;4.18;3.42;;;;;;;;;;5023896;28;20073;-53
2021/04/29 11:29:37;;;;;;;7.93;3.75;;;;;;;;;;5020229;28;20528;-54
2021/04/29 11:32:03;;;;;;;5.28;3.67;;;;;;;;;;5024095;28;20348;-53
2021/04/29 11:34:39;;;;;;;5.60;3.63;;;;;;;;;;5024648;28;20045;-54
2021/04/29 11:37:05;;;;;;;8.13;3.10;;;;;;;;;;5014479;28;20116;-54
2021/04/29 11:39:33;;;;;;;13.18;4.25;;;;;;;;;;5022652;28;20037;-54
2021/04/29 11:41:59;;;;;;;14.18;4.05;;;;;;;;;;5028835;28;20824;-50
2021/04/29 11:44:26;;;;;;;6.93;3.35;;;;;;;;;;5028501;28;20045;-50
2021/04/29 11:46:53;;;;;;;6.10;3.50;;;;;;;;;;5028291;28;20069;-50
2021/04/29 11:49:19;;;;;;;4.20;3.78;;;;;;;;;;5020397;28;20095;-48
2021/04/29 11:51:50;;;;;;;5.97;4.47;;;;;;;;;;5030438;28;20033;-47
2021/04/29 11:54:18;;;;;;;8.70;4.85;;;;;;;;;;5030142;28;20051;-48
2021/04/29 11:56:52;;;;;;;7.35;5.13;;;;;;;;;;5014309;28;20414;-46
2021/04/29 11:59:19;;;;;;;8.77;3.17;;;;;;;;;;5028938;28;20040;-47
2021/04/29 12:01:55;;;;;;;5.82;2.83;;;;;;;;;;5022265;28;20049;-48
2021/04/29 12:04:22;;;;;;;7.93;3.17;;;;;;;;;;5018119;28;20371;-47
2021/04/29 12:06:53;;;;;;;3.33;3.03;;;;;;;;;;5022994;28;20112;-51
2021/04/29 12:09:19;;;;;;;4.45;2.28;;;;;;;;;;5013882;28;20123;-47
2021/04/29 12:11:56;;;;;;;3.67;1.63;;;;;;;;;;5028771;28;20099;-47
2021/04/29 12:14:23;;;;;;;5.03;2.78;;;;;;;;;;5028198;28;20034;-50
2021/04/29 12:16:51;;;;;;;4.30;2.65;;;;;;;;;;5022845;28;20041;-46
2021/04/29 12:19:38;;;;;;;4.05;2.85;;;;;;;;;;5027051;28;20048;-47
2021/04/29 12:22:04;;;;;;;10.65;2.67;;;;;;;;;;5028511;28;20049;-48
2021/04/29 12:24:41;;;;;;;2.58;1.85;;;;;;;;;;5017150;28;20049;-48
2021/04/29 12:27:13;;;;;;;4.80;2.92;;;;;;;;;;5025880;28;20046;-49
2021/04/29 12:29:40;;;;;;;4.13;2.97;;;;;;;;;;5032411;28;20045;-50
2021/04/29 12:32:06;;;;;;;5.35;2.33;;;;;;;;;;5028584;28;20059;-46
2021/04/29 12:34:40;;;;;;;8.95;2.65;;;;;;;;;;5033903;28;20065;-47
2021/04/29 12:37:07;;;;;;;7.88;3.13;;;;;;;;;;5018394;28;20631;-47
2021/04/29 12:39:46;;;;;;;2.35;2.13;;;;;;;;;;5029836;28;20062;-50
2021/04/29 12:42:18;;;;;;;8.82;2.88;;;;;;;;;;5034115;28;20128;-51
2021/04/29 12:44:45;;;;;;;4.40;2.67;;;;;;;;;;5029153;28;20041;-48
2021/04/29 12:47:21;;;;;;;2.00;1.90;;;;;;;;;;5025764;28;20057;-49
2021/04/29 12:50:03;;;;;;;3.25;2.97;;;;;;;;;;5027020;28;20061;-47
2021/04/29 12:52:30;;;;;;;5.88;2.60;;;;;;;;;;5024979;28;20044;-50
2021/04/29 12:54:56;;;;;;;6.82;3.58;;;;;;;;;;5025830;28;20053;-51
2021/04/29 12:57:22;;;;;;;9.38;3.80;;;;;;;;;;5027617;28;20041;-51
2021/04/29 12:59:49;;;;;;;6.72;3.13;;;;;;;;;;5025991;28;20505;-51
2021/04/29 13:02:22;;;;;;;5.53;3.22;;;;;;;;;;5023732;28;20064;-49
2021/04/29 13:04:59;;;;;;;5.28;3.55;;;;;;;;;;5029501;28;20037;-48
2021/04/29 13:07:27;;;;;;;6.63;4.40;;;;;;;;;;5023874;28;20061;-50
2021/04/29 13:09:53;;;;;;;6.32;4.13;;;;;;;;;;5028043;28;20099;-49
2021/04/29 13:12:21;;;;;;;10.30;3.40;;;;;;;;;;5024678;28;20112;-48
2021/04/29 13:14:55;;;;;;;4.63;4.28;;;;;;;;;;5028850;28;20056;-50
2021/04/29 13:17:22;;;;;;;11.60;4.50;;;;;;;;;;5021455;28;20038;-45
2021/04/29 13:20:06;;;;;;;6.38;4.78;;;;;;;;;;5023805;28;20425;-44
2021/04/29 13:22:33;;;;;;;5.10;3.83;;;;;;;;;;5028328;28;20060;-46
2021/04/29 13:25:00;;;;;;;5.57;5.03;;;;;;;;;;5025679;28;20046;-45
2021/04/29 13:27:27;;;;;;;5.97;4.25;;;;;;;;;;5028232;28;20041;-44
2021/04/29 13:29:53;;;;;;;9.07;5.75;;;;;;;;;;5023306;28;20034;-45
2021/04/29 13:32:20;;;;;;;17.55;5.38;;;;;;;;;;5024663;28;20525;-44
2021/04/29 13:34:48;;;;;;;6.18;5.47;;;;;;;;;;5027328;28;20095;-44
2021/04/29 13:37:29;;;;;;;5.85;5.32;;;;;;;;;;5026798;28;20038;-45
2021/04/29 13:39:55;;;;;;;4.15;3.45;;;;;;;;;;5028773;28;20132;-46
2021/04/29 13:42:24;;;;;;;4.35;4.03;;;;;;;;;;5010950;28;20142;-46
2021/04/29 13:44:50;;;;;;;3.97;3.58;;;;;;;;;;5026805;28;20053;-45
2021/04/29 13:47:16;;;;;;;6.45;4.13;;;;;;;;;;5026385;28;20124;-47
2021/04/29 13:49:43;;;;;;;9.35;5.18;;;;;;;;;;5018844;28;20069;-44
2021/04/29 13:52:09;;;;;;;6.63;4.43;;;;;;;;;;5021894;28;20060;-46
2021/04/29 13:54:35;;;;;;;5.88;4.38;;;;;;;;;;5010496;28;20076;-46
2021/04/29 13:57:02;;;;;;;5.32;4.93;;;;;;;;;;5028689;28;20038;-47
2021/04/29 13:59:30;;;;;;;8.38;5.75;;;;;;;;;;5027263;28;20047;-44
2021/04/29 14:01:56;;;;;;;7.68;5.38;;;;;;;;;;5015144;28;20161;-46
2021/04/29 14:04:22;;;;;;;14.73;5.30;;;;;;;;;;5024982;28;20056;-46
2021/04/29 14:06:49;;;;;;;4.60;4.10;;;;;;;;;;5012821;28;20533;-44
2021/04/29 14:09:15;;;;;;;8.43;5.38;;;;;;;;;;5020762;28;20046;-48
2021/04/29 14:11:44;;;;;;;10.90;4.47;;;;;;;;;;5017625;28;20041;-46
2021/04/29 14:14:10;;;;;;;8.45;5.07;;;;;;;;;;5031445;28;20051;-44
2021/04/29 14:16:36;;;;;;;12.20;6.95;;;;;;;;;;5031754;28;20042;-45
2021/04/29 14:19:03;;;;;;;8.52;4.95;;;;;;;;;;5031246;28;20049;-42
2021/04/29 14:21:29;;;;;;;5.22;4.07;;;;;;;;;;5024012;28;20034;-43
2021/04/29 14:23:55;;;;;;;8.88;4.32;;;;;;;;;;5023632;28;20068;-43
2021/04/29 14:26:22;;;;;;;4.78;3.95;;;;;;;;;;5030425;28;20056;-43
2021/04/29 14:28:48;;;;;;;5.13;4.63;;;;;;;;;;5030438;28;20064;-43
2021/04/29 14:31:14;;;;;;;5.03;4.57;;;;;;;;;;5020956;28;20065;-43
2021/04/29 14:33:40;;;;;;;5.20;4.75;;;;;;;;;;5023489;28;20026;-44
2021/04/29 14:36:07;;;;;;;9.50;4.47;;;;;;;;;;5021188;28;20379;-42
2021/04/29 14:38:33;;;;;;;12.27;7.75;;;;;;;;;;5032301;28;20084;-45
2021/04/29 14:41:00;;;;;;;7.63;5.38;;;;;;;;;;5031341;28;20722;-45
2021/04/29 14:43:26;;;;;;;11.43;7.50;;;;;;;;;;5031506;28;20427;-44
2021/04/29 14:45:53;;;;;;;7.00;6.28;;;;;;;;;;5021635;28;20070;-46